createdAt,value
2023-04-15T00:01:19.414Z,13.75
2023-04-15T00:03:48.684Z,14.15
2023-04-15T00:06:19.478Z,11.52
2023-04-15T00:08:48.117Z,11.93
2023-04-15T00:11:16.509Z,13.07
2023-04-15T00:13:45.645Z,12.60
2023-04-15T00:16:14.060Z,14.77
2023-04-15T00:18:42.495Z,17.15
2023-04-15T00:21:10.800Z,19.13
2023-04-15T00:23:40.655Z,19.05
2023-04-15T00:26:09.620Z,13.40
2023-04-15T00:28:38.492Z,14.52
2023-04-15T00:31:06.970Z,12.90
2023-04-15T00:33:36.698Z,15.10
2023-04-15T00:36:08.579Z,12.18
2023-04-15T00:38:39.049Z,14.68
2023-04-15T00:41:09.149Z,12.90
2023-04-15T00:43:37.507Z,12.98
2023-04-15T00:46:07.585Z,15.32
2023-04-15T00:48:36.982Z,14.52
2023-04-15T00:51:05.496Z,18.23
2023-04-15T00:53:34.559Z,12.20
2023-04-15T00:56:02.876Z,13.48
2023-04-15T00:58:32.672Z,18.95
2023-04-15T01:01:01.967Z,13.03
2023-04-15T01:03:31.866Z,12.75
2023-04-15T01:06:03.617Z,15.25
2023-04-15T01:08:33.000Z,16.30
2023-04-15T01:11:03.638Z,16.40
2023-04-15T01:16:04.002Z,12.50
2023-04-15T01:18:32.873Z,12.25
2023-04-15T01:21:03.672Z,14.93
2023-04-15T01:23:33.160Z,13.63
2023-04-15T01:26:03.549Z,13.23
2023-04-15T01:28:32.264Z,15.68
2023-04-15T01:31:10.775Z,11.95
2023-04-15T01:33:39.579Z,14.43
2023-04-15T01:36:10.031Z,14.27
2023-04-15T01:38:39.203Z,14.65
2023-04-15T01:41:09.100Z,16.20
2023-04-15T01:43:37.865Z,14.07
2023-04-15T01:46:07.287Z,19.95
2023-04-15T01:48:35.937Z,15.60
2023-04-15T01:51:05.674Z,14.02
2023-04-15T01:53:34.331Z,14.27
2023-04-15T01:56:04.301Z,14.97
2023-04-15T01:58:34.190Z,19.83
2023-04-15T02:01:03.060Z,14.43
2023-04-15T02:03:33.610Z,14.95
2023-04-15T02:06:02.509Z,15.40
2023-04-15T02:08:30.803Z,13.75
2023-04-15T02:11:01.168Z,13.75
2023-04-15T02:13:30.212Z,16.60
2023-04-15T02:16:01.037Z,12.77
2023-04-15T02:18:29.469Z,12.90
2023-04-15T02:20:58.558Z,13.35
2023-04-15T02:23:27.258Z,15.15
2023-04-15T02:25:55.716Z,11.90
2023-04-15T02:28:24.263Z,16.80
2023-04-15T02:30:53.734Z,13.07
2023-04-15T02:33:23.775Z,17.35
2023-04-15T02:35:53.256Z,16.35
2023-04-15T02:38:21.784Z,13.05
2023-04-15T02:40:51.086Z,16.65
2023-04-15T02:43:19.421Z,14.90
2023-04-15T02:45:48.460Z,14.10
2023-04-15T02:48:19.408Z,15.05
2023-04-15T02:53:19.874Z,13.70
2023-04-15T02:55:48.343Z,14.45
2023-04-15T02:58:17.107Z,14.02
2023-04-15T03:00:45.523Z,13.88
2023-04-15T03:03:15.270Z,15.45
2023-04-15T03:05:43.781Z,13.68
2023-04-15T03:08:14.969Z,17.77
2023-04-15T03:10:43.324Z,15.50
2023-04-15T03:13:11.719Z,16.38
2023-04-15T03:15:40.666Z,14.98
2023-04-15T03:18:09.102Z,16.65
2023-04-15T03:20:37.514Z,13.82
2023-04-15T03:23:06.068Z,14.60
2023-04-15T03:25:37.436Z,14.55
2023-04-15T03:28:07.801Z,15.60
2023-04-15T03:30:36.364Z,14.65
2023-04-15T03:33:04.885Z,15.30
2023-04-15T03:35:33.961Z,16.40
2023-04-15T03:38:02.301Z,13.27
2023-04-15T03:40:30.740Z,13.43
2023-04-15T03:43:00.542Z,15.45
2023-04-15T03:45:28.915Z,12.20
2023-04-15T03:48:03.595Z,16.63
2023-04-15T03:50:39.711Z,14.10
2023-04-15T03:53:07.998Z,13.70
2023-04-15T03:55:36.360Z,12.18
2023-04-15T03:58:06.104Z,12.68
2023-04-15T04:00:34.493Z,14.47
2023-04-15T04:03:03.041Z,15.27
2023-04-15T04:05:31.782Z,12.90
2023-04-15T04:08:00.031Z,16.15
2023-04-15T04:10:28.402Z,14.60
2023-04-15T04:12:56.743Z,15.90
2023-04-15T04:15:27.105Z,16.15
2023-04-15T04:17:55.580Z,11.73
2023-04-15T04:20:25.115Z,17.95
2023-04-15T04:22:53.498Z,15.10
2023-04-15T04:25:21.997Z,14.40
2023-04-15T04:27:50.505Z,16.10
2023-04-15T04:30:18.932Z,15.35
2023-04-15T04:32:48.640Z,13.75
2023-04-15T04:35:17.086Z,14.00
2023-04-15T04:37:45.409Z,17.13
2023-04-15T04:40:14.879Z,17.13
2023-04-15T04:42:43.302Z,17.15
2023-04-15T04:45:12.373Z,17.17
2023-04-15T04:47:40.720Z,15.77
2023-04-15T04:50:11.672Z,15.38
2023-04-15T04:52:40.595Z,15.82
2023-04-15T04:55:09.679Z,13.50
2023-04-15T04:57:39.601Z,16.63
2023-04-15T05:00:10.833Z,14.60
2023-04-15T05:02:39.674Z,16.05
2023-04-15T05:05:10.968Z,15.25
2023-04-15T05:07:39.545Z,13.45
2023-04-15T05:10:09.864Z,16.38
2023-04-15T05:12:38.642Z,14.82
2023-04-15T05:15:09.120Z,15.25
2023-04-15T05:17:37.610Z,14.38
2023-04-15T05:20:07.502Z,13.70
2023-04-15T05:22:37.181Z,16.00
2023-04-15T05:25:06.606Z,16.83
2023-04-15T05:27:34.974Z,15.00
2023-04-15T05:30:03.385Z,15.98
2023-04-15T05:32:31.909Z,16.35
2023-04-15T05:35:00.285Z,21.02
2023-04-15T05:37:28.683Z,13.30
2023-04-15T05:39:58.369Z,16.77
2023-04-15T05:42:26.760Z,17.17
2023-04-15T05:44:55.185Z,19.45
2023-04-15T05:47:23.784Z,14.00
2023-04-15T05:49:52.226Z,15.23
2023-04-15T05:52:20.604Z,14.45
2023-04-15T05:54:48.931Z,14.63
2023-04-15T05:57:18.663Z,12.38
2023-04-15T05:59:47.153Z,16.37
2023-04-15T06:02:15.671Z,13.55
2023-04-15T06:04:44.073Z,13.43
2023-04-15T06:07:12.592Z,18.15
2023-04-15T06:09:41.220Z,17.25
2023-04-15T06:12:12.236Z,12.27
2023-04-15T06:14:42.225Z,12.98
2023-04-15T06:17:10.881Z,15.73
2023-04-15T06:19:39.366Z,15.38
2023-04-15T06:22:08.032Z,17.13
2023-04-15T06:24:37.127Z,14.77
2023-04-15T06:27:05.709Z,14.02
2023-04-15T06:29:34.439Z,14.40
2023-04-15T06:32:04.195Z,16.17
2023-04-15T06:34:32.606Z,14.63
2023-04-15T06:37:01.605Z,16.45
2023-04-15T06:39:30.018Z,16.40
2023-04-15T06:41:58.296Z,14.27
2023-04-15T06:44:26.786Z,14.90
2023-04-15T06:46:55.160Z,16.23
2023-04-15T06:49:24.897Z,12.93
2023-04-15T06:51:53.245Z,12.55
2023-04-15T06:54:21.828Z,14.38
2023-04-15T06:56:50.258Z,16.20
2023-04-15T06:59:19.153Z,15.10
2023-04-15T07:01:47.611Z,16.25
2023-04-15T07:04:16.390Z,14.85
2023-04-15T07:06:46.317Z,12.63
2023-04-15T07:09:15.885Z,15.82
2023-04-15T07:11:44.298Z,16.50
2023-04-15T07:14:13.394Z,14.40
2023-04-15T07:16:42.006Z,14.20
2023-04-15T07:19:10.599Z,15.50
2023-04-15T07:21:41.704Z,14.10
2023-04-15T07:24:11.916Z,15.48
2023-04-15T07:26:40.443Z,13.25
2023-04-15T07:29:08.871Z,15.27
2023-04-15T07:31:37.822Z,14.95
2023-04-15T07:34:08.023Z,13.65
2023-04-15T07:36:36.858Z,15.57
2023-04-15T07:39:06.040Z,13.88
2023-04-15T07:41:35.889Z,13.35
2023-04-15T07:44:04.268Z,14.80
2023-04-15T07:46:32.655Z,13.55
2023-04-15T07:49:01.627Z,15.15
2023-04-15T07:51:30.670Z,14.48
2023-04-15T07:53:58.980Z,13.90
2023-04-15T07:56:27.815Z,13.77
2023-04-15T07:58:57.507Z,13.15
2023-04-15T08:01:25.899Z,13.65
2023-04-15T08:03:55.441Z,13.70
2023-04-15T08:06:23.935Z,11.77
2023-04-15T08:08:52.725Z,13.10
2023-04-15T08:11:21.216Z,13.82
2023-04-15T08:13:49.587Z,12.20
2023-04-15T08:16:24.623Z,13.70
2023-04-15T08:18:56.622Z,11.57
2023-04-15T08:21:26.128Z,14.60
2023-04-15T08:23:55.545Z,11.95
2023-04-15T08:26:24.149Z,10.90
2023-04-15T08:28:52.506Z,13.90
2023-04-15T08:31:22.322Z,13.18
2023-04-15T08:33:52.084Z,12.95
2023-04-15T08:36:21.126Z,13.27
2023-04-15T08:38:49.415Z,12.73
2023-04-15T08:41:23.349Z,15.48
2023-04-15T08:43:59.065Z,12.10
2023-04-15T08:46:29.539Z,11.70
2023-04-15T08:49:00.535Z,14.32
2023-04-15T08:51:29.950Z,13.63
2023-04-15T08:53:58.329Z,12.05
2023-04-15T08:56:27.886Z,11.90
2023-04-15T08:58:56.790Z,12.52
2023-04-15T09:01:26.034Z,11.63
2023-04-15T09:03:56.478Z,11.73
2023-04-15T09:06:25.683Z,13.43
2023-04-15T09:08:54.202Z,13.52
2023-04-15T09:11:24.764Z,14.32
2023-04-15T09:13:53.256Z,12.98
2023-04-15T09:16:21.560Z,12.65
2023-04-15T09:18:50.023Z,13.52
2023-04-15T09:21:20.041Z,13.98
2023-04-15T09:23:59.287Z,13.30
2023-04-15T09:26:35.835Z,11.93
2023-04-15T09:29:07.925Z,13.90
2023-04-15T09:31:36.915Z,13.45
2023-04-15T09:34:05.498Z,10.93
2023-04-15T09:36:54.211Z,11.20
2023-04-15T09:39:22.697Z,9.88
2023-04-15T09:42:07.964Z,9.55
2023-04-15T09:44:36.736Z,10.82
2023-04-15T09:47:05.489Z,9.80
2023-04-15T09:49:34.261Z,9.38
2023-04-15T09:52:06.039Z,11.25
2023-04-15T09:54:37.389Z,9.32
2023-04-15T09:57:10.058Z,10.60
2023-04-15T09:59:38.720Z,11.68
2023-04-15T10:02:08.212Z,8.85
2023-04-15T10:04:41.568Z,8.90
2023-04-15T10:07:11.668Z,8.45
2023-04-15T10:09:41.325Z,10.27
2023-04-15T10:12:11.268Z,10.77
2023-04-15T10:14:40.969Z,8.93
2023-04-15T10:17:12.866Z,8.55
2023-04-15T10:19:42.929Z,10.60
2023-04-15T10:22:13.082Z,9.18
2023-04-15T10:24:42.660Z,7.65
2023-04-15T10:27:11.564Z,7.85
2023-04-15T10:29:40.112Z,7.80
2023-04-15T10:32:08.660Z,9.00
2023-04-15T10:34:38.355Z,6.88
2023-04-15T10:37:06.931Z,6.90
2023-04-15T10:39:44.616Z,7.03
2023-04-15T10:42:15.488Z,6.55
2023-04-15T10:44:46.158Z,7.38
2023-04-15T10:49:50.032Z,6.25
2023-04-15T10:52:23.608Z,6.63
2023-04-15T10:55:04.750Z,8.82
2023-04-15T10:57:38.599Z,6.57
2023-04-15T11:00:15.893Z,7.20
2023-04-15T11:02:49.318Z,7.25
2023-04-15T11:05:19.506Z,7.07
2023-04-15T11:07:54.452Z,8.40
2023-04-15T11:10:55.140Z,12.25
2023-04-15T11:13:31.656Z,7.45
2023-04-15T11:16:02.151Z,8.77
2023-04-15T11:18:33.612Z,6.00
2023-04-15T11:21:05.115Z,8.15
2023-04-15T11:23:37.485Z,6.45
2023-04-15T11:26:11.985Z,7.43
2023-04-15T11:28:43.019Z,9.73
2023-04-15T11:33:48.922Z,6.40
2023-04-15T11:36:17.821Z,6.72
2023-04-15T11:38:48.213Z,8.05
2023-04-15T11:41:23.308Z,6.78
2023-04-15T11:43:52.340Z,7.15
2023-04-15T11:46:21.508Z,7.18
2023-04-15T11:48:49.947Z,6.05
2023-04-15T11:51:18.596Z,8.35
2023-04-15T11:53:48.874Z,6.55
2023-04-15T11:56:23.984Z,7.15
2023-04-15T11:58:57.062Z,9.25
2023-04-15T12:01:33.581Z,9.00
2023-04-15T12:04:03.858Z,8.68
2023-04-15T12:06:36.889Z,9.13
2023-04-15T12:09:13.840Z,8.48
2023-04-15T12:11:48.391Z,9.20
2023-04-15T12:14:28.280Z,10.25
2023-04-15T12:17:00.258Z,11.87
2023-04-15T12:19:32.548Z,11.43
2023-04-15T12:22:04.163Z,9.20
2023-04-15T12:24:35.138Z,9.32
2023-04-15T12:27:06.638Z,9.20
2023-04-15T12:29:37.481Z,10.13
2023-04-15T12:32:08.647Z,9.80
2023-04-15T12:34:38.824Z,8.45
2023-04-15T12:37:10.135Z,10.02
2023-04-15T12:39:40.606Z,8.48
2023-04-15T12:42:11.409Z,9.85
2023-04-15T12:47:10.670Z,10.98
2023-04-15T12:49:39.441Z,12.55
2023-04-15T12:52:08.118Z,11.98
2023-04-15T12:54:36.642Z,12.15
2023-04-15T12:57:07.172Z,9.60
2023-04-15T12:59:37.804Z,10.77
2023-04-15T13:02:06.589Z,9.25
2023-04-15T13:04:35.121Z,8.95
2023-04-15T13:07:03.802Z,10.55
2023-04-15T13:09:32.419Z,14.20
2023-04-15T13:12:05.357Z,11.93
2023-04-15T13:14:33.701Z,13.15
2023-04-15T13:17:08.889Z,9.18
2023-04-15T13:19:37.667Z,9.45
2023-04-15T13:22:06.973Z,9.60
2023-04-15T13:24:35.395Z,9.18
2023-04-15T13:27:04.326Z,8.88
2023-04-15T13:29:32.639Z,9.82
2023-04-15T13:32:02.532Z,8.18
2023-04-15T13:34:30.859Z,11.65
2023-04-15T13:36:59.228Z,7.20
2023-04-15T13:39:27.573Z,11.50
2023-04-15T13:41:55.996Z,8.07
2023-04-15T13:44:24.326Z,13.20
2023-04-15T13:46:53.294Z,9.52
2023-04-15T13:49:22.954Z,9.13
2023-04-15T13:51:52.134Z,9.18
2023-04-15T13:54:20.438Z,6.78
2023-04-15T13:56:48.714Z,12.68
2023-04-15T13:59:17.126Z,11.20
2023-04-15T14:01:45.566Z,10.35
2023-04-15T14:04:14.711Z,7.13
2023-04-15T14:06:44.610Z,8.50
2023-04-15T14:09:13.010Z,7.80
2023-04-15T14:11:41.481Z,9.57
2023-04-15T14:14:09.890Z,10.38
2023-04-15T14:16:38.244Z,7.85
2023-04-15T14:19:06.849Z,8.18
2023-04-15T14:21:35.461Z,12.82
2023-04-15T14:24:05.892Z,7.82
2023-04-15T14:26:34.269Z,12.13
2023-04-15T14:29:03.909Z,8.43
2023-04-15T14:31:32.425Z,8.82
2023-04-15T14:34:00.683Z,12.18
2023-04-15T14:36:29.102Z,11.10
2023-04-15T14:38:57.470Z,9.68
2023-04-15T14:41:27.245Z,8.60
2023-04-15T14:43:56.602Z,9.27
2023-04-15T14:46:24.929Z,8.45
2023-04-15T14:48:53.602Z,14.77
2023-04-15T14:51:21.951Z,10.20
2023-04-15T14:53:50.356Z,10.75
2023-04-15T14:56:18.665Z,10.27
2023-04-15T14:58:49.357Z,9.40
2023-04-15T15:03:46.180Z,11.40
2023-04-15T15:06:14.694Z,13.93
2023-04-15T15:08:43.054Z,11.55
2023-04-15T15:11:11.641Z,12.82
2023-04-15T15:13:39.936Z,11.85
2023-04-15T15:16:11.396Z,12.70
2023-04-15T15:18:41.495Z,14.82
2023-04-15T15:21:09.859Z,12.80
2023-04-15T15:23:38.213Z,14.05
2023-04-15T15:26:07.118Z,19.30
2023-04-15T15:28:36.009Z,11.18
2023-04-15T15:31:05.350Z,14.77
2023-04-15T15:33:35.315Z,11.55
2023-04-15T15:36:05.328Z,17.67
2023-04-15T15:38:33.748Z,12.55
2023-04-15T15:41:02.076Z,11.70
2023-04-15T15:43:30.446Z,14.00
2023-04-15T15:45:58.736Z,14.90
2023-04-15T15:48:27.111Z,13.88
2023-04-15T15:50:57.729Z,11.40
2023-04-15T15:55:54.486Z,15.65
2023-04-15T15:58:22.844Z,9.80
2023-04-15T16:00:51.299Z,15.15
2023-04-15T16:03:19.936Z,14.32
2023-04-15T16:05:48.442Z,12.82
2023-04-15T16:08:20.137Z,10.48
2023-04-15T16:10:48.549Z,11.38
2023-04-15T16:13:16.904Z,13.43
2023-04-15T16:15:45.301Z,11.35
2023-04-15T16:18:13.649Z,14.00
2023-04-15T16:20:42.091Z,12.95
2023-04-15T16:23:15.040Z,11.15
2023-04-15T16:25:45.819Z,14.93
2023-04-15T16:30:55.563Z,11.27
2023-04-15T16:33:23.926Z,11.95
2023-04-15T16:35:53.067Z,11.00
2023-04-15T16:38:21.541Z,11.15
2023-04-15T16:40:51.535Z,14.93
2023-04-15T16:43:20.140Z,12.32
2023-04-15T16:45:51.028Z,14.82
2023-04-15T16:48:20.134Z,18.42
2023-04-15T16:50:49.639Z,11.45
2023-04-15T16:53:18.047Z,14.75
2023-04-15T16:55:46.417Z,14.95
2023-04-15T16:58:16.328Z,9.95
2023-04-15T17:00:45.199Z,14.70
2023-04-15T17:03:13.989Z,10.90
2023-04-15T17:05:42.949Z,12.93
2023-04-15T17:08:11.279Z,16.85
2023-04-15T17:10:39.794Z,15.57
2023-04-15T17:13:08.283Z,14.02
2023-04-15T17:15:38.139Z,12.52
2023-04-15T17:18:06.729Z,9.82
2023-04-15T17:20:35.527Z,13.02
2023-04-15T17:23:04.873Z,13.95
2023-04-15T17:25:33.112Z,14.60
2023-04-15T17:28:02.022Z,12.40
2023-04-15T17:30:30.661Z,15.02
2023-04-15T17:33:00.762Z,11.30
2023-04-15T17:35:29.282Z,14.00
2023-04-15T17:37:58.310Z,12.05
2023-04-15T17:40:26.673Z,13.18
2023-04-15T17:42:55.267Z,13.15
2023-04-15T17:45:23.610Z,12.02
2023-04-15T17:47:51.909Z,13.25
2023-04-15T17:50:22.476Z,16.92
2023-04-15T17:52:51.547Z,11.63
2023-04-15T17:55:22.112Z,16.58
2023-04-15T17:57:50.568Z,14.30
2023-04-15T18:00:19.052Z,9.40
2023-04-15T18:02:48.812Z,11.65
2023-04-15T18:05:18.823Z,10.23
2023-04-15T18:07:49.054Z,11.10
2023-04-15T18:10:17.518Z,10.85
2023-04-15T18:12:45.965Z,10.32
2023-04-15T18:15:14.560Z,12.77
2023-04-15T18:17:42.988Z,11.82
2023-04-15T18:20:12.829Z,13.70
2023-04-15T18:22:41.273Z,15.50
2023-04-15T18:25:11.632Z,13.57
2023-04-15T18:27:40.396Z,16.77
2023-04-15T18:30:10.515Z,11.00
2023-04-15T18:32:39.798Z,10.88
2023-04-15T18:35:09.258Z,14.35
2023-04-15T18:37:37.641Z,12.52
2023-04-15T18:40:08.596Z,11.07
2023-04-15T18:42:38.506Z,11.68
2023-04-15T18:45:08.303Z,12.80
2023-04-15T18:47:36.684Z,10.63
2023-04-15T18:50:05.302Z,10.98
2023-04-15T18:52:33.823Z,14.55
2023-04-15T18:55:03.387Z,11.10
2023-04-15T18:57:34.778Z,16.13
2023-04-15T19:00:08.241Z,10.65
2023-04-15T19:02:36.742Z,10.30
2023-04-15T19:05:06.996Z,6.53
2023-04-15T19:07:36.130Z,7.93
2023-04-15T19:10:05.087Z,12.00
2023-04-15T19:12:33.666Z,11.73
2023-04-15T19:15:01.967Z,9.55
2023-04-15T19:17:31.730Z,14.80
2023-04-15T19:20:00.157Z,12.30
2023-04-15T19:22:30.640Z,11.80
2023-04-15T19:24:59.134Z,16.73
2023-04-15T19:27:28.278Z,15.30
2023-04-15T19:29:56.676Z,14.23
2023-04-15T19:32:25.111Z,12.35
2023-04-15T19:34:54.937Z,13.85
2023-04-15T19:37:23.340Z,17.73
2023-04-15T19:39:51.673Z,8.10
2023-04-15T19:42:20.051Z,8.63
2023-04-15T19:44:48.471Z,10.02
2023-04-15T19:47:16.844Z,11.93
2023-04-15T19:49:45.278Z,15.45
2023-04-15T19:52:15.004Z,12.75
2023-04-15T19:54:43.368Z,13.23
2023-04-15T19:57:11.678Z,15.32
2023-04-15T19:59:40.048Z,14.98
2023-04-15T20:02:08.808Z,15.52
2023-04-15T20:04:37.313Z,14.88
2023-04-15T20:07:05.678Z,13.05
2023-04-15T20:09:35.530Z,13.25
2023-04-15T20:12:09.681Z,16.77
2023-04-15T20:14:52.432Z,14.98
2023-04-15T20:17:20.798Z,13.02
2023-04-15T20:19:49.164Z,18.25
2023-04-15T20:22:17.517Z,11.85
2023-04-15T20:24:47.385Z,18.90
2023-04-15T20:27:15.776Z,16.53
2023-04-15T20:29:44.110Z,13.25
2023-04-15T20:32:12.886Z,17.98
2023-04-15T20:34:41.275Z,16.63
2023-04-15T20:37:11.403Z,13.48
2023-04-15T20:39:41.338Z,10.85
2023-04-15T20:42:11.194Z,16.13
2023-04-15T20:44:39.615Z,9.50
2023-04-15T20:47:08.164Z,15.13
2023-04-15T20:49:36.858Z,11.00
2023-04-15T20:52:06.447Z,13.57
2023-04-15T20:54:35.048Z,11.30
2023-04-15T20:57:03.541Z,13.13
2023-04-15T20:59:34.829Z,14.23
2023-04-15T21:02:03.355Z,11.32
2023-04-15T21:04:31.789Z,8.88
2023-04-15T21:07:00.133Z,14.70
2023-04-15T21:09:28.458Z,7.78
2023-04-15T21:12:01.529Z,9.95
2023-04-15T21:14:31.011Z,10.15
2023-04-15T21:17:03.334Z,12.55
2023-04-15T21:19:31.730Z,9.43
2023-04-15T21:22:00.336Z,9.98
2023-04-15T21:24:29.146Z,13.55
2023-04-15T21:26:57.717Z,8.70
2023-04-15T21:29:26.605Z,8.52
2023-04-15T21:31:55.085Z,10.18
2023-04-15T21:34:25.029Z,8.63
2023-04-15T21:36:53.402Z,6.22
2023-04-15T21:39:21.801Z,4.35
2023-04-15T21:41:50.260Z,10.02
2023-04-15T21:44:18.638Z,10.43
2023-04-15T21:46:47.116Z,9.60
2023-04-15T21:49:16.091Z,12.55
2023-04-15T21:51:46.377Z,9.98
2023-04-15T21:54:14.750Z,10.90
2023-04-15T21:56:43.734Z,11.23
2023-04-15T21:59:12.177Z,10.80
2023-04-15T22:01:40.545Z,9.38
2023-04-15T22:04:10.916Z,9.32
2023-04-15T22:06:39.777Z,13.30
2023-04-15T22:09:11.997Z,13.25
2023-04-15T22:11:41.904Z,6.50
2023-04-15T22:14:10.528Z,11.18
2023-04-15T22:16:39.001Z,10.48
2023-04-15T22:19:07.585Z,9.75
2023-04-15T22:21:36.323Z,7.55
2023-04-15T22:24:38.818Z,11.68
2023-04-15T22:26:54.881Z,9.15
2023-04-15T22:29:23.369Z,7.27
2023-04-15T22:31:51.956Z,9.73
2023-04-15T22:34:21.591Z,10.95
2023-04-15T22:36:50.792Z,6.57
2023-04-15T22:39:19.703Z,7.30
2023-04-15T22:41:48.057Z,11.43
2023-04-15T22:44:17.818Z,13.02
2023-04-15T22:46:46.278Z,10.23
2023-04-15T22:49:14.511Z,9.23
2023-04-15T22:51:42.915Z,8.95
2023-04-15T22:54:11.335Z,11.02
2023-04-15T22:56:39.769Z,9.23
2023-04-15T22:59:08.344Z,10.68
2023-04-15T23:01:39.043Z,15.95
2023-04-15T23:04:09.615Z,9.82
2023-04-15T23:06:52.472Z,12.48
2023-04-15T23:09:20.996Z,7.50
2023-04-15T23:11:49.374Z,9.95
2023-04-15T23:14:17.742Z,8.23
2023-04-15T23:16:47.551Z,9.73
2023-04-15T23:19:15.996Z,12.73
2023-04-15T23:21:44.439Z,7.75
2023-04-15T23:24:13.425Z,7.80
2023-04-15T23:26:41.954Z,12.35
2023-04-15T23:29:11.301Z,14.93
2023-04-15T23:31:41.550Z,11.75
2023-04-15T23:34:11.471Z,13.68
2023-04-15T23:36:40.428Z,11.40
2023-04-15T23:39:09.129Z,11.27
2023-04-15T23:41:37.699Z,15.60
2023-04-15T23:44:07.159Z,12.50
2023-04-15T23:46:35.540Z,15.73
2023-04-15T23:49:03.900Z,23.65
2023-04-15T23:51:33.681Z,13.27
2023-04-15T23:54:02.059Z,15.18
2023-04-15T23:56:30.455Z,11.95
2023-04-15T23:58:58.831Z,18.15
